King Salmon, AK (99549)

1:07 AM AKDT on October 01, 2014 (GMT -0800)
Port Heiden | Change Station
CLOSE
Current Station
Airport
Location: Port Heiden,
Elevation: 95 ft
Nearby Weather Stations

Elev 95 ft 56.96 °N, 158.63 °W | Updated 31 minutes ago

Clear
Clear
37 °F
Feels Like 30 °F
N
12
Wind Variable Wind from NE

Today
High -- | Low -- °F
--% Chance of Precip.
Yesterday
High -- | Low -- °F
Precip. -- in
8:38 AM 8:08 PM
Waxing Crescent, 45% visible
Pressure 30.22 in
Visibility 10.0 miles
Clouds Clear
Windchill 30 °F
Dew Point 25 °F
Humidity 60%
Rainfall 0.00 in
Snow Depth Not available.
UV 0 out of 12
Pollen Not available.
Air Quality Not available.
Flu Activity Not available.
METAR PAPH 010836Z AUTO 05010KT 10SM CLR 03/M04 A3022 RMK AO1

More Conditions Fewer Conditions

Pressure 30.22 in
Visibility 10.0 miles
Clouds Clear
Windchill 30 °F
Dew Point 25 °F
Humidity 60%
Rainfall 0.00 in
Snow Depth Not available.
UV 0 out of 12
Pollen Not available.
Air Quality Not available.
Flu Activity Not available.
METAR PAPH 010836Z AUTO 05010KT 10SM CLR 03/M04 A3022 RMK AO1

More Conditions Fewer Conditions

10-Day Weather Forecast

Almanac

Astronomy

Oct. 01, 2014 Rise Set
Actual Time 8:38 AM AKDT 8:08 PM AKDT
Civil Twilight 8:00 AM AKDT 8:46 PM AKDT
Nautical Twilight 7:16 AM AKDT 9:30 PM AKDT
Astronomical Twilight 6:29 AM AKDT 10:16 PM AKDT
Moon 4:39 PM AKDT No Moon Set
Length of Visible Light 12h 45m
Length of Day
11h 29m
Tomorrow will be 4m 47s shorter.
Waxing Crescent, 45% of the Moon is Illuminated
Today
Waxing Crescent
Oct 1
First Quarter
Oct 8
Full
Oct 15
Last Quarter
Oct 23
New

Today's Extremes

State Highs State Lows

Community

WunderPhotos

Upload Photos

1,757,902 photos uploaded!

Nearby

Snow Depth

Station Depth Elevation
Granite Creek 0 in 1240 ft
MF Bradley River 1 in 2300 ft
Rocky Point 2 in 500 ft
Coldfoot 3 in 1040 ft
Gobblers Knob 4 in 2030 ft

Earthquake Activity

City Distance Mag. Time & Date
No recent earthquake activity has been reported nearby.
Minimum magnitude displayed is 2.5.

Coastal Water Temperatures

Place Temperature
No Stations Reporting

Nearby Weather Stations